createdAt,value
2023-02-21T00:00:54.652Z,41.50
2023-02-21T00:03:39.937Z,36.95
2023-02-21T00:06:27.375Z,34.60
2023-02-21T00:09:12.982Z,33.55
2023-02-21T00:12:02.662Z,32.67
2023-02-21T00:14:48.098Z,29.70
2023-02-21T00:17:33.999Z,33.25
2023-02-21T00:20:19.259Z,28.10
2023-02-21T00:23:05.258Z,30.85
2023-02-21T00:25:50.696Z,27.80
2023-02-21T00:28:35.989Z,28.05
2023-02-21T00:31:21.392Z,28.17
2023-02-21T00:34:07.281Z,27.10
2023-02-21T00:36:52.799Z,26.45
2023-02-21T00:39:38.200Z,29.92
2023-02-21T00:42:23.553Z,28.77
2023-02-21T00:45:08.748Z,26.80
2023-02-21T00:47:54.308Z,29.00
2023-02-21T00:50:39.811Z,27.23
2023-02-21T00:53:25.792Z,28.92
2023-02-21T00:56:11.178Z,29.73
2023-02-21T00:58:56.757Z,28.52
2023-02-21T01:01:41.971Z,30.40
2023-02-21T01:04:27.626Z,28.70
2023-02-21T01:07:12.860Z,28.05
2023-02-21T01:09:58.442Z,31.13
2023-02-21T01:12:43.813Z,28.92
2023-02-21T01:15:29.244Z,30.15
2023-02-21T01:18:14.640Z,29.50
2023-02-21T01:20:59.934Z,29.13
2023-02-21T01:23:45.165Z,29.25
2023-02-21T01:26:31.241Z,26.40
2023-02-21T01:29:16.600Z,27.05
2023-02-21T01:32:01.950Z,28.42
2023-02-21T01:34:47.304Z,28.05
2023-02-21T01:37:33.059Z,28.02
2023-02-21T01:40:18.553Z,29.30
2023-02-21T01:43:04.265Z,28.55
2023-02-21T01:45:55.795Z,27.23
2023-02-21T01:48:42.748Z,27.83
2023-02-21T01:51:30.671Z,28.65
2023-02-21T01:54:16.315Z,27.77
2023-02-21T01:57:02.084Z,27.33
2023-02-21T01:59:47.922Z,27.00
2023-02-21T02:03:07.266Z,27.45
2023-02-21T02:05:53.854Z,26.75
2023-02-21T02:08:44.398Z,28.38
2023-02-21T02:12:09.278Z,27.17
2023-02-21T02:14:48.146Z,27.90
2023-02-21T02:17:21.120Z,27.58
2023-02-21T02:19:47.912Z,26.58
2023-02-21T02:22:33.075Z,26.92
2023-02-21T02:25:30.827Z,28.20
2023-02-21T02:28:09.881Z,26.92
2023-02-21T02:30:53.311Z,28.35
2023-02-21T02:33:57.979Z,27.73
2023-02-21T02:36:51.462Z,27.05
2023-02-21T02:39:48.728Z,27.35
2023-02-21T02:42:18.611Z,28.40
2023-02-21T02:45:01.609Z,26.83
2023-02-21T02:47:40.591Z,28.35
2023-02-21T02:50:09.638Z,27.38
2023-02-21T02:52:36.862Z,27.52
2023-02-21T02:55:21.044Z,28.85
2023-02-21T02:57:48.922Z,26.33
2023-02-21T03:00:16.674Z,27.67
2023-02-21T03:03:07.882Z,26.48
2023-02-21T03:05:43.672Z,26.30
2023-02-21T03:08:23.080Z,28.83
2023-02-21T03:11:18.656Z,26.97
2023-02-21T03:14:07.320Z,27.27
2023-02-21T03:16:42.518Z,27.55
2023-02-21T03:19:17.636Z,29.25
2023-02-21T03:21:49.804Z,28.08
2023-02-21T03:24:18.932Z,26.88
2023-02-21T03:26:49.687Z,26.25
2023-02-21T03:29:17.245Z,27.02
2023-02-21T03:31:54.156Z,25.00
2023-02-21T03:34:21.929Z,26.50
2023-02-21T03:36:49.624Z,25.70
2023-02-21T03:39:16.472Z,26.30
2023-02-21T03:41:43.319Z,26.33
2023-02-21T03:44:10.156Z,25.20
2023-02-21T03:46:38.683Z,24.92
2023-02-21T03:49:06.736Z,25.23
2023-02-21T03:51:33.578Z,25.23
2023-02-21T03:54:00.412Z,25.10
2023-02-21T03:56:36.668Z,25.70
2023-02-21T03:59:07.250Z,24.40
2023-02-21T04:01:34.049Z,24.90
2023-02-21T04:04:00.938Z,24.02
2023-02-21T04:06:27.848Z,24.17
2023-02-21T04:08:54.676Z,25.13
2023-02-21T04:11:22.697Z,26.65
2023-02-21T04:13:49.578Z,25.27
2023-02-21T04:16:16.432Z,25.52
2023-02-21T04:18:43.298Z,25.80
2023-02-21T04:21:10.211Z,27.00
2023-02-21T04:23:36.998Z,25.48
2023-02-21T04:26:03.864Z,28.02
2023-02-21T04:28:30.774Z,26.02
2023-02-21T04:30:57.629Z,25.75
2023-02-21T04:33:24.507Z,26.90
2023-02-21T04:35:51.372Z,27.83
2023-02-21T04:38:18.369Z,28.48
2023-02-21T04:40:45.238Z,27.20
2023-02-21T04:43:12.085Z,27.20
2023-02-21T04:45:38.952Z,27.63
2023-02-21T04:48:06.125Z,26.88
2023-02-21T04:50:32.969Z,27.02
2023-02-21T04:52:59.873Z,28.80
2023-02-21T04:55:26.734Z,29.17
2023-02-21T04:57:53.535Z,27.10
2023-02-21T05:00:20.443Z,30.08
2023-02-21T05:02:48.108Z,29.42
2023-02-21T05:05:15.042Z,28.20
2023-02-21T05:07:42.871Z,27.52
2023-02-21T05:10:10.948Z,28.55
2023-02-21T05:12:41.757Z,29.30
2023-02-21T05:15:10.006Z,28.08
2023-02-21T05:17:36.884Z,27.67
2023-02-21T05:20:05.137Z,28.50
2023-02-21T05:22:32.030Z,27.77
2023-02-21T05:24:58.849Z,28.70
2023-02-21T05:27:25.768Z,28.00
2023-02-21T05:29:53.828Z,28.77
2023-02-21T05:32:22.326Z,27.40
2023-02-21T05:34:49.278Z,29.63
2023-02-21T05:37:17.491Z,31.20
2023-02-21T05:39:44.329Z,29.15
2023-02-21T05:42:11.439Z,30.63
2023-02-21T05:44:38.324Z,30.83
2023-02-21T05:47:07.230Z,30.10
2023-02-21T05:49:34.168Z,30.05
2023-02-21T05:52:00.989Z,30.13
2023-02-21T05:54:27.855Z,30.73
2023-02-21T05:56:54.692Z,32.65
2023-02-21T05:59:21.951Z,30.90
2023-02-21T06:01:49.636Z,30.52
2023-02-21T06:04:17.618Z,31.25
2023-02-21T06:06:45.320Z,33.15
2023-02-21T06:09:12.730Z,33.80
2023-02-21T06:11:40.534Z,31.40
2023-02-21T06:14:14.113Z,33.85
2023-02-21T06:16:40.991Z,32.72
2023-02-21T06:19:09.659Z,33.42
2023-02-21T06:21:36.760Z,34.60
2023-02-21T06:24:03.786Z,34.97
2023-02-21T06:26:30.808Z,34.08
2023-02-21T06:28:57.666Z,34.15
2023-02-21T06:31:24.908Z,34.15
2023-02-21T06:33:52.260Z,36.92
2023-02-21T06:36:22.772Z,35.95
2023-02-21T06:38:52.830Z,35.83
2023-02-21T06:41:24.635Z,35.88
2023-02-21T06:43:56.277Z,35.40
2023-02-21T06:46:25.798Z,36.65
2023-02-21T06:51:20.086Z,37.47
2023-02-21T06:53:50.440Z,37.58
2023-02-21T06:56:17.376Z,37.35
2023-02-21T06:58:44.325Z,34.97
2023-02-21T07:01:11.221Z,37.38
2023-02-21T07:03:43.256Z,35.10
2023-02-21T07:06:10.477Z,35.03
2023-02-21T07:08:37.401Z,36.13
2023-02-21T07:11:05.797Z,35.92
2023-02-21T07:13:33.630Z,34.63
2023-02-21T07:16:01.780Z,37.40
2023-02-21T07:18:28.721Z,37.85
2023-02-21T07:20:55.776Z,37.90
2023-02-21T07:23:22.560Z,39.00
2023-02-21T07:25:49.512Z,37.08
2023-02-21T07:28:16.595Z,39.80
2023-02-21T07:30:43.539Z,38.92
2023-02-21T07:33:10.402Z,38.72
2023-02-21T07:35:37.275Z,40.03
2023-02-21T07:38:04.121Z,42.38
2023-02-21T07:40:30.993Z,40.60
2023-02-21T07:42:57.920Z,40.55
2023-02-21T07:45:24.997Z,39.83
2023-02-21T07:47:53.338Z,40.20
2023-02-21T07:50:20.378Z,41.95
2023-02-21T07:52:47.262Z,40.65
2023-02-21T07:55:15.098Z,43.35
2023-02-21T07:57:41.919Z,41.72
2023-02-21T08:00:09.686Z,40.55
2023-02-21T08:02:36.538Z,38.92
2023-02-21T08:05:05.867Z,39.75
2023-02-21T08:07:32.760Z,42.45
2023-02-21T08:09:59.716Z,39.67
2023-02-21T08:12:26.781Z,38.35
2023-02-21T08:14:53.653Z,38.42
2023-02-21T08:17:20.607Z,39.25
2023-02-21T08:19:47.639Z,38.20
2023-02-21T08:22:14.526Z,37.63
2023-02-21T08:24:41.422Z,38.83
2023-02-21T08:27:08.296Z,37.83
2023-02-21T08:29:35.128Z,36.65
2023-02-21T08:32:02.261Z,39.15
2023-02-21T08:34:31.956Z,38.10
2023-02-21T08:36:58.830Z,38.65
2023-02-21T08:39:29.959Z,38.60
2023-02-21T08:41:57.133Z,37.78
2023-02-21T08:44:23.999Z,37.78
2023-02-21T08:46:50.942Z,38.92
2023-02-21T08:49:18.151Z,36.83
2023-02-21T08:51:45.049Z,36.97
2023-02-21T08:54:11.971Z,38.33
2023-02-21T08:56:38.894Z,38.30
2023-02-21T08:59:05.972Z,37.08
2023-02-21T09:01:34.960Z,38.28
2023-02-21T09:04:05.957Z,35.58
2023-02-21T09:06:33.054Z,40.50
2023-02-21T09:09:00.569Z,37.42
2023-02-21T09:11:27.416Z,37.25
2023-02-21T09:13:55.189Z,37.55
2023-02-21T09:16:23.660Z,39.17
2023-02-21T09:18:59.171Z,37.28
2023-02-21T09:21:26.834Z,37.55
2023-02-21T09:23:55.705Z,40.20
2023-02-21T09:26:24.260Z,38.58
2023-02-21T09:28:52.547Z,38.20
2023-02-21T09:31:20.702Z,38.22
2023-02-21T09:33:47.679Z,39.15
2023-02-21T09:36:14.822Z,38.28
2023-02-21T09:38:42.049Z,37.83
2023-02-21T09:41:13.685Z,39.95
2023-02-21T09:43:47.702Z,37.70
2023-02-21T09:46:42.841Z,40.80
2023-02-21T09:49:37.342Z,38.05
2023-02-21T09:52:04.445Z,37.50
2023-02-21T09:54:39.158Z,38.00
2023-02-21T09:57:11.845Z,40.72
2023-02-21T09:59:38.713Z,37.88
2023-02-21T10:02:14.675Z,38.42
2023-02-21T10:05:03.415Z,39.58
2023-02-21T10:07:49.624Z,37.80
2023-02-21T10:10:48.677Z,39.58
2023-02-21T10:13:27.074Z,38.33
2023-02-21T10:16:02.242Z,40.17
2023-02-21T10:18:40.919Z,38.03
2023-02-21T10:21:33.423Z,39.85
2023-02-21T10:24:05.182Z,38.03
2023-02-21T10:26:38.115Z,38.85
2023-02-21T10:29:09.142Z,38.83
2023-02-21T10:31:38.858Z,38.92
2023-02-21T10:34:10.127Z,38.45
2023-02-21T10:36:36.926Z,39.42
2023-02-21T10:39:10.660Z,39.17
2023-02-21T10:41:41.387Z,38.45
2023-02-21T10:44:18.559Z,39.58
2023-02-21T10:47:13.935Z,36.80
2023-02-21T10:49:54.196Z,37.90
2023-02-21T10:55:31.436Z,40.20
2023-02-21T10:58:06.926Z,37.40
2023-02-21T11:00:48.105Z,37.47
2023-02-21T11:03:18.035Z,35.83
2023-02-21T11:05:58.514Z,35.13
2023-02-21T11:08:38.989Z,36.22
2023-02-21T11:11:06.368Z,34.35
2023-02-21T11:13:36.176Z,35.10
2023-02-21T11:16:17.491Z,34.05
2023-02-21T11:18:44.620Z,33.42
2023-02-21T11:21:19.724Z,35.20
2023-02-21T11:23:59.050Z,34.15
2023-02-21T11:26:27.746Z,33.97
2023-02-21T11:28:54.574Z,33.17
2023-02-21T11:31:31.188Z,33.15
2023-02-21T11:34:05.597Z,34.03
2023-02-21T11:36:38.811Z,35.50
2023-02-21T11:39:23.556Z,34.42
2023-02-21T11:42:31.040Z,32.85
2023-02-21T11:45:20.569Z,32.97
2023-02-21T11:47:58.671Z,31.20
2023-02-21T11:50:34.197Z,30.95
2023-02-21T11:53:22.452Z,31.25
2023-02-21T11:56:28.252Z,30.77
2023-02-21T11:59:23.846Z,32.28
2023-02-21T12:02:26.215Z,32.60
2023-02-21T12:05:10.231Z,33.90
2023-02-21T12:07:47.827Z,32.53
2023-02-21T12:10:39.500Z,31.77
2023-02-21T12:13:25.129Z,32.67
2023-02-21T12:16:16.374Z,31.33
2023-02-21T12:18:43.255Z,30.90
2023-02-21T12:21:36.057Z,31.67
2023-02-21T12:24:26.087Z,30.75
2023-02-21T12:27:24.731Z,31.08
2023-02-21T12:30:10.357Z,32.00
2023-02-21T12:32:40.483Z,31.27
2023-02-21T12:35:33.902Z,31.58
2023-02-21T12:38:07.426Z,30.98
2023-02-21T12:40:34.191Z,33.30
2023-02-21T12:43:08.859Z,30.42
2023-02-21T12:45:43.842Z,31.73
2023-02-21T12:48:25.609Z,28.75
2023-02-21T12:50:55.361Z,29.70
2023-02-21T12:53:47.794Z,31.58
2023-02-21T12:56:24.096Z,32.42
2023-02-21T12:59:03.347Z,31.08
2023-02-21T13:01:32.666Z,32.00
2023-02-21T13:04:18.118Z,31.75
2023-02-21T13:07:03.842Z,31.70
2023-02-21T13:09:51.098Z,32.30
2023-02-21T13:12:52.646Z,32.05
2023-02-21T13:15:22.319Z,31.35
2023-02-21T13:18:09.672Z,33.70
2023-02-21T13:20:42.608Z,33.08
2023-02-21T13:23:51.280Z,30.33
2023-02-21T13:26:31.137Z,31.38
2023-02-21T13:28:59.071Z,30.88
2023-02-21T13:31:39.331Z,33.50
2023-02-21T13:34:09.842Z,32.35
2023-02-21T13:36:43.169Z,32.25
2023-02-21T13:39:10.037Z,28.75
2023-02-21T13:41:40.966Z,29.50
2023-02-21T13:44:27.046Z,29.73
2023-02-21T13:46:54.735Z,30.92
2023-02-21T13:49:40.214Z,32.22
2023-02-21T13:52:28.885Z,32.00
2023-02-21T13:55:17.906Z,31.63
2023-02-21T13:57:58.226Z,32.45
2023-02-21T14:03:13.912Z,30.67
2023-02-21T14:05:52.926Z,30.92
2023-02-21T14:08:32.108Z,30.75
2023-02-21T14:11:16.788Z,32.10
2023-02-21T14:13:54.814Z,30.80
2023-02-21T14:16:50.287Z,32.85
2023-02-21T14:19:26.156Z,29.67
2023-02-21T14:22:15.459Z,31.95
2023-02-21T14:25:03.889Z,32.22
2023-02-21T14:27:33.857Z,32.80
2023-02-21T14:30:13.197Z,33.05
2023-02-21T14:32:55.300Z,37.53
2023-02-21T14:35:36.313Z,37.75
2023-02-21T14:38:04.815Z,39.85
2023-02-21T14:41:13.032Z,34.85
2023-02-21T14:43:45.256Z,40.28
2023-02-21T14:46:24.032Z,39.35
2023-02-21T14:49:23.179Z,39.80
2023-02-21T14:52:08.625Z,40.00
2023-02-21T14:54:50.816Z,37.88
2023-02-21T14:57:39.508Z,39.53
2023-02-21T15:00:30.598Z,40.90
2023-02-21T15:05:50.763Z,43.28
2023-02-21T15:08:20.784Z,42.17
2023-02-21T15:10:49.310Z,46.25
2023-02-21T15:13:30.142Z,46.20
2023-02-21T15:16:04.611Z,44.90
2023-02-21T15:18:33.507Z,43.97
2023-02-21T15:21:06.282Z,50.08
2023-02-21T15:23:34.568Z,52.47
2023-02-21T15:26:21.886Z,46.35
2023-02-21T15:29:16.105Z,48.83
2023-02-21T15:31:48.191Z,46.03
2023-02-21T15:34:20.319Z,46.22
2023-02-21T15:36:50.930Z,48.25
2023-02-21T15:39:33.930Z,48.20
2023-02-21T15:42:05.559Z,47.78
2023-02-21T15:44:38.991Z,46.38
2023-02-21T15:47:14.100Z,46.33
2023-02-21T15:49:45.190Z,38.72
2023-02-21T15:52:53.655Z,43.30
2023-02-21T15:55:20.666Z,43.35
2023-02-21T15:57:57.595Z,39.10
2023-02-21T16:00:35.470Z,41.88
2023-02-21T16:03:30.507Z,41.10
2023-02-21T16:06:12.761Z,41.88
2023-02-21T16:08:51.045Z,41.25
2023-02-21T16:11:19.860Z,39.17
2023-02-21T16:13:46.922Z,38.25
2023-02-21T16:16:13.987Z,37.75
2023-02-21T16:18:41.209Z,35.65
2023-02-21T16:21:21.548Z,41.60
2023-02-21T16:26:16.838Z,38.50
2023-02-21T16:28:45.772Z,38.10
2023-02-21T16:31:25.170Z,36.85
2023-02-21T16:33:52.159Z,37.72
2023-02-21T16:36:27.493Z,40.78
2023-02-21T16:38:58.916Z,39.50
2023-02-21T16:41:26.652Z,39.38
2023-02-21T16:43:53.772Z,39.67
2023-02-21T16:46:29.102Z,35.95
2023-02-21T16:48:57.075Z,36.58
2023-02-21T16:51:23.962Z,36.92
2023-02-21T16:53:50.795Z,35.60
2023-02-21T16:56:18.041Z,39.95
2023-02-21T16:58:50.391Z,32.88
2023-02-21T17:01:28.046Z,33.22
2023-02-21T17:03:55.062Z,39.72
2023-02-21T17:06:24.519Z,36.65
2023-02-21T17:11:18.828Z,40.40
2023-02-21T17:13:45.772Z,38.03
2023-02-21T17:16:12.739Z,38.17
2023-02-21T17:18:39.628Z,38.22
2023-02-21T17:21:06.688Z,38.55
2023-02-21T17:23:33.550Z,38.92
2023-02-21T17:26:00.470Z,36.63
2023-02-21T17:28:27.451Z,34.30
2023-02-21T17:30:54.640Z,39.55
2023-02-21T17:33:22.028Z,31.70
2023-02-21T17:35:50.014Z,33.78
2023-02-21T17:38:17.176Z,34.63
2023-02-21T17:40:46.425Z,40.83
2023-02-21T17:43:16.122Z,29.95
2023-02-21T17:45:43.034Z,40.42
2023-02-21T17:48:09.906Z,36.63
2023-02-21T17:50:36.794Z,35.88
2023-02-21T17:53:03.724Z,31.13
2023-02-21T17:55:32.325Z,36.35
2023-02-21T17:57:59.593Z,37.30
2023-02-21T18:00:28.565Z,36.55
2023-02-21T18:02:56.650Z,36.05
2023-02-21T18:05:24.210Z,36.40
2023-02-21T18:07:53.037Z,29.23
2023-02-21T18:10:23.120Z,37.83
2023-02-21T18:12:51.579Z,26.92
2023-02-21T18:15:20.775Z,34.28
2023-02-21T18:17:47.689Z,37.47
2023-02-21T18:20:18.009Z,36.45
2023-02-21T18:22:44.941Z,33.33
2023-02-21T18:25:15.359Z,31.52
2023-02-21T18:27:42.527Z,31.65
2023-02-21T18:30:10.230Z,34.90
2023-02-21T18:32:37.181Z,33.95
2023-02-21T18:35:04.389Z,35.25
2023-02-21T18:37:31.210Z,33.17
2023-02-21T18:39:58.083Z,35.25
2023-02-21T18:42:25.286Z,33.22
2023-02-21T18:44:52.418Z,36.10
2023-02-21T18:47:19.831Z,34.95
2023-02-21T18:49:47.978Z,35.35
2023-02-21T18:52:16.353Z,29.60
2023-02-21T18:54:48.891Z,36.42
2023-02-21T18:57:18.101Z,33.58
2023-02-21T18:59:45.108Z,32.92
2023-02-21T19:02:15.031Z,31.17
2023-02-21T19:04:43.538Z,33.15
2023-02-21T19:07:13.428Z,34.15
2023-02-21T19:09:40.732Z,34.38
2023-02-21T19:12:10.362Z,35.58
2023-02-21T19:14:38.147Z,33.63
2023-02-21T19:17:07.782Z,33.70
2023-02-21T19:19:35.625Z,35.35
2023-02-21T19:22:02.538Z,33.38
2023-02-21T19:24:29.435Z,34.20
2023-02-21T19:26:56.398Z,35.72
2023-02-21T19:29:23.373Z,34.78
2023-02-21T19:31:50.451Z,31.73
2023-02-21T19:34:17.407Z,27.88
2023-02-21T19:36:44.343Z,26.48
2023-02-21T19:39:12.056Z,33.40
2023-02-21T19:41:40.347Z,28.58
2023-02-21T19:44:08.416Z,33.33
2023-02-21T19:46:35.636Z,32.97
2023-02-21T19:49:03.096Z,22.98
2023-02-21T19:51:32.338Z,33.30
2023-02-21T19:54:00.207Z,32.78
2023-02-21T19:56:28.201Z,31.08
2023-02-21T19:58:55.451Z,27.48
2023-02-21T20:01:23.108Z,31.90
2023-02-21T20:03:50.651Z,34.53
2023-02-21T20:06:18.716Z,28.42
2023-02-21T20:08:48.831Z,31.15
2023-02-21T20:11:20.598Z,27.92
2023-02-21T20:13:47.996Z,23.50
2023-02-21T20:16:17.061Z,33.63
2023-02-21T20:18:44.750Z,31.75
2023-02-21T20:21:19.552Z,21.73
2023-02-21T20:23:46.657Z,35.45
2023-02-21T20:26:14.030Z,25.48
2023-02-21T20:28:40.905Z,26.30
2023-02-21T20:31:11.318Z,27.55
2023-02-21T20:33:38.922Z,28.05
2023-02-21T20:36:06.868Z,28.98
2023-02-21T20:38:34.461Z,29.08
2023-02-21T20:41:01.845Z,23.63
2023-02-21T20:43:29.383Z,21.25
2023-02-21T20:45:56.496Z,21.02
2023-02-21T20:48:25.546Z,23.27
2023-02-21T20:50:53.793Z,22.02
2023-02-21T20:53:21.237Z,22.95
2023-02-21T20:55:48.265Z,22.55
2023-02-21T20:58:15.145Z,22.77
2023-02-21T21:00:42.845Z,19.40
2023-02-21T21:03:12.053Z,24.30
2023-02-21T21:05:38.935Z,24.98
2023-02-21T21:08:06.395Z,23.83
2023-02-21T21:10:33.198Z,25.08
2023-02-21T21:13:00.175Z,25.00
2023-02-21T21:15:27.391Z,24.85
2023-02-21T21:17:54.957Z,26.95
2023-02-21T21:20:24.312Z,20.23
2023-02-21T21:22:51.467Z,19.90
2023-02-21T21:25:18.682Z,19.70
2023-02-21T21:27:45.870Z,19.35
2023-02-21T21:30:18.288Z,23.45
2023-02-21T21:32:45.487Z,19.88
2023-02-21T21:35:14.764Z,20.00
2023-02-21T21:37:41.883Z,24.70
2023-02-21T21:40:16.153Z,20.73
2023-02-21T21:42:50.130Z,24.13
2023-02-21T21:45:19.366Z,22.65
2023-02-21T21:47:48.476Z,17.05
2023-02-21T21:50:16.349Z,23.30
2023-02-21T21:52:45.588Z,23.85
2023-02-21T21:55:17.755Z,22.90
2023-02-21T21:57:44.581Z,21.55
2023-02-21T22:00:21.729Z,18.30
2023-02-21T22:02:50.462Z,20.45
2023-02-21T22:05:17.554Z,21.38
2023-02-21T22:07:44.585Z,26.05
2023-02-21T22:10:11.929Z,23.23
2023-02-21T22:12:40.159Z,24.25
2023-02-21T22:15:10.819Z,25.80
2023-02-21T22:17:37.889Z,19.45
2023-02-21T22:20:17.357Z,26.15
2023-02-21T22:22:48.969Z,25.25
2023-02-21T22:25:20.989Z,26.50
2023-02-21T22:27:48.694Z,27.48
2023-02-21T22:30:18.446Z,19.48
2023-02-21T22:32:47.085Z,27.77
2023-02-21T22:35:19.137Z,21.70
2023-02-21T22:37:54.564Z,19.38
2023-02-21T22:40:24.527Z,18.50
2023-02-21T22:42:52.143Z,24.38
2023-02-21T22:45:21.861Z,23.77
2023-02-21T22:47:50.344Z,23.38
2023-02-21T22:50:20.381Z,25.75
2023-02-21T22:52:56.446Z,17.73
2023-02-21T22:55:25.128Z,16.33
2023-02-21T22:57:53.677Z,19.48
2023-02-21T23:00:25.254Z,16.23
2023-02-21T23:02:52.766Z,16.30
2023-02-21T23:05:21.774Z,20.35
2023-02-21T23:07:51.268Z,20.65
2023-02-21T23:12:52.719Z,25.25
2023-02-21T23:15:21.062Z,27.52
2023-02-21T23:17:49.290Z,17.98
2023-02-21T23:20:22.217Z,22.10
2023-02-21T23:22:51.428Z,27.55
2023-02-21T23:25:26.959Z,29.90
2023-02-21T23:27:56.618Z,23.15
2023-02-21T23:30:38.812Z,28.63
2023-02-21T23:33:14.536Z,36.45
2023-02-21T23:35:51.255Z,21.27
2023-02-21T23:38:22.684Z,19.02
2023-02-21T23:40:57.616Z,20.48
2023-02-21T23:43:29.261Z,23.58
2023-02-21T23:45:57.713Z,20.67
2023-02-21T23:48:24.650Z,24.73
2023-02-21T23:50:51.588Z,27.13
2023-02-21T23:53:21.129Z,20.40
2023-02-21T23:58:19.337Z,23.17
